Portada
METAR-TAF:

METAR-TAF

Aeroports :

Altamira, Pará, Brasil

latitud: 03-12S, longitud: 052-12W, altitud: 74 m

Observació

L'informe es va fer fa 5 hores i 8 minuts, a les 21:00 UTC
Vent 3 kt del Est/Sud-Est
Temperatura 30°C
Humitat 66%
Pressió 1012 hPa
Visibilitat 10 km o més
Núvols disperses a una alçada de 3000 ft

METAR: SBHT 192100Z 12003KT 9999 SCT030 30/23 Q1012

Hora: 23:08 (02:08 UTC)


TAF: manca

Observacions i pronòstics meteorològics de més de 4000 aeroports (METAR i TAF).

Les estacions disponibles són els punts grocs i vermells al mapa.

Posi el ratolí al punt desitjat per veure el nom de l'estació.

Feu clic per veure les observacions i els pronòstics meteorològics.

Per canviar el mapa: feu clic els botons verds amb una creu de color negre per apropar; al botó verd amb un guió per allunyar la imatge; o en les fletxes verdes per a mapes adjacents.


METAR-TAF: